^^
Station Historical Data
Daily Summary for February 26, 2017 Units:  Metric    English   Both
« Previous Day
Next Day »
Daily Weekly Monthly Yearly Custom
  High: Low: Average:
Temperature: 36.1 °C 19.2 °C 26.8 °C
Dew Point: 7.4 °C -4.2 °C 5.1 °C
Humidity: 45% 11% 28%
Wind Speed: 22.7km/h 0km/h 5.6km/h
Wind Gust: 27.4km/h - -
Wind- - SSW
Pressure: 1012.4 hPa 1005.6 hPa -
Precipitation: 0 mm    
Historical Graphs
 
 
Tabular Data for February 26, 2017
Time Temperature Dew Point Pressure Wind Wind Speed Wind Gust Humidity Rainfall Rate (Hourly) solar Conditions
00:06 24.9 °C 7.1 °C 1012.4 hPa SW 9.7 km/h 14.5 km/h 32% 0 mm 0.0 W/m2
00:21 24.6 °C 6.8 °C 1012.1 hPa SW 14.3 km/h 14.5 km/h 32% 0 mm 0.0 W/m2
00:26 24.6 °C 6.8 °C 1012.1 hPa SW 9.7 km/h 16.1 km/h 32% 0 mm 0.0 W/m2
00:37 24.4 °C 6.6 °C 1012.1 hPa SW 11.1 km/h 17.7 km/h 32% 0 mm 0.0 W/m2
00:46 24.3 °C 6.5 °C 1012.1 hPa SW 14.3 km/h 16.1 km/h 32% 0 mm 0.0 W/m2
00:51 24.2 °C 6.5 °C 1012.1 hPa SW 9.7 km/h 14.5 km/h 32% 0 mm 0.0 W/m2
00:57 24.1 °C 6.4 °C 1012.1 hPa SW 13 km/h 14.5 km/h 32% 0 mm 0.0 W/m2
01:02 24 °C 6.7 °C 1012.1 hPa SW 9.7 km/h 14.5 km/h 33% 0 mm 0.0 W/m2
01:06 23.9 °C 6.6 °C 1012.1 hPa SW 11.1 km/h 14.5 km/h 33% 0 mm 0.0 W/m2
01:12 23.9 °C 6.6 °C 1012.1 hPa SW 7.9 km/h 14.5 km/h 33% 0 mm 0.0 W/m2
01:17 23.8 °C 6.6 °C 1011.7 hPa SW 11.1 km/h 12.9 km/h 33% 0 mm 0.0 W/m2
01:22 23.8 °C 6.6 °C 1011.7 hPa SW 13 km/h 13 km/h 33% 0 mm 0.0 W/m2
01:27 23.7 °C 6.5 °C 1011.7 hPa SW 9.7 km/h 14.5 km/h 33% 0 mm 0.0 W/m2
01:32 23.7 °C 6.5 °C 1011.7 hPa SW 9.7 km/h 14.5 km/h 33% 0 mm 0.0 W/m2
01:38 23.6 °C 6.4 °C 1011.7 hPa SW 7.9 km/h 11.3 km/h 33% 0 mm 0.0 W/m2
01:44 23.4 °C 6.2 °C 1011.7 hPa SW 9.7 km/h 11.3 km/h 33% 0 mm 0.0 W/m2
01:49 23.3 °C 6.6 °C 1011.7 hPa SW 13 km/h 13 km/h 34% 0 mm 0.0 W/m2
02:01 23.2 °C 6.5 °C 1011.7 hPa SW 7.9 km/h 12.9 km/h 34% 0 mm 0.0 W/m2
02:12 23.1 °C 6.4 °C 1011.4 hPa SW 9.7 km/h 11.3 km/h 34% 0 mm 0.0 W/m2
02:27 22.9 °C 6.2 °C 1011.4 hPa SW 9.7 km/h 12.9 km/h 34% 0 mm 0.0 W/m2
02:37 22.7 °C 6.4 °C 1011.4 hPa SW 9.7 km/h 12.9 km/h 35% 0 mm 0.0 W/m2
02:47 22.7 °C 6.4 °C 1011.4 hPa SW 7.9 km/h 11.3 km/h 35% 0 mm 0.0 W/m2
02:58 22.4 °C 6.2 °C 1011.1 hPa SW 6.4 km/h 8 km/h 35% 0 mm 0.0 W/m2
03:13 21.9 °C 6.2 °C 1011.1 hPa SW 7.9 km/h 9.7 km/h 36% 0 mm 0.0 W/m2
03:26 21.6 °C 6.3 °C 1011.1 hPa SW 3.2 km/h 8 km/h 37% 0 mm 0.0 W/m2
03:33 21.4 °C 6.1 °C 1011.1 hPa Calm     37% 0 mm 0.0 W/m2
03:43 21 °C 6.1 °C 1010.7 hPa Calm     38% 0 mm 0.0 W/m2
03:48 21 °C 6.1 °C 1010.7 hPa Calm     38% 0 mm 0.0 W/m2
03:53 21 °C 6.1 °C 1010.7 hPa Calm     38% 0 mm 0.0 W/m2
03:59 20.7 °C 6.2 °C 1010.7 hPa Calm     39% 0 mm 0.0 W/m2
04:04 20.6 °C 6.2 °C 1011.1 hPa Calm     39% 0 mm 0.0 W/m2
04:09 20.4 °C 6 °C 1010.7 hPa Calm     39% 0 mm 0.0 W/m2
04:14 20.3 °C 6.3 °C 1010.7 hPa Calm     40% 0 mm 0.0 W/m2
04:24 20.2 °C 6.2 °C 1010.7 hPa Calm     40% 0 mm 0.0 W/m2
04:29 20.1 °C 6.1 °C 1010.7 hPa Calm     40% 0 mm 0.0 W/m2
04:34 20.1 °C 6.1 °C 1010.7 hPa Calm     40% 0 mm 0.0 W/m2
04:40 19.9 °C 5.9 °C 1010.7 hPa Calm     40% 0 mm 0.0 W/m2
04:45 19.9 °C 6.3 °C 1010.7 hPa Calm     41% 0 mm 0.0 W/m2
04:50 19.8 °C 6.5 °C 1010.7 hPa Calm     42% 0 mm 0.0 W/m2
04:56 19.9 °C 6.9 °C 1010.7 hPa Calm     43% 0 mm 0.0 W/m2
05:01 20 °C 6.7 °C 1010.4 hPa Calm     42% 0 mm 0.0 W/m2
05:06 20.2 °C 6.9 °C 1010.7 hPa Calm     42% 0 mm 0.0 W/m2
05:11 20.2 °C 6.5 °C 1010.4 hPa Calm     41% 0 mm 0.0 W/m2
05:21 20.1 °C 6.8 °C 1010.4 hPa Calm     42% 0 mm 0.0 W/m2
05:26 20.1 °C 6.8 °C 1010.4 hPa Calm     42% 0 mm 0.0 W/m2
05:31 20.1 °C 6.8 °C 1010.4 hPa Calm     42% 0 mm 0.0 W/m2
05:36 19.9 °C 6.6 °C 1010.4 hPa Calm     42% 0 mm 0.0 W/m2
05:41 19.8 °C 6.9 °C 1010.4 hPa Calm     43% 0 mm 0.0 W/m2
05:47 19.8 °C 6.9 °C 1010.4 hPa Calm     43% 0 mm 0.0 W/m2
05:57 19.9 °C 6.9 °C 1010.7 hPa Calm     43% 0 mm 0.0 W/m2
06:03 19.9 °C 6.9 °C 1010.7 hPa Calm     43% 0 mm 0.0 W/m2
06:13 19.8 °C 6.9 °C 1010.7 hPa Calm     43% 0 mm 0.0 W/m2
06:19 19.6 °C 6.7 °C 1010.7 hPa Calm     43% 0 mm 0.0 W/m2
06:28 19.3 °C 7.1 °C 1010.7 hPa Calm     45% 0 mm 0.0 W/m2
06:32 19.3 °C 6.7 °C 1010.7 hPa Calm     44% 0 mm 0.0 W/m2
06:39 19.3 °C 6.7 °C 1010.7 hPa Calm     44% 0 mm 0.0 W/m2
07:08 19.2 °C 7 °C 1011.1 hPa Calm     45% 0 mm 39.0 W/m2
07:18 19.6 °C 7 °C 1011.4 hPa Calm     44% 0 mm 70.0 W/m2
07:33 20.4 °C 7.1 °C 1011.4 hPa Calm     42% 0 mm 132.0 W/m2
07:49 21.3 °C 7.2 °C 1011.4 hPa Calm     40% 0 mm 204.0 W/m2
07:59 22 °C 7 °C 1011.4 hPa Calm     38% 0 mm 246.0 W/m2
08:13 22.4 °C 7.4 °C 1011.4 hPa Calm     38% 0 mm 285.0 W/m2
10:52 29.2 °C 5.9 °C 1011.1 hPa Calm     23% 0 mm 798.0 W/m2
11:00 29.3 °C 6 °C 1011.1 hPa Calm     23% 0 mm 809.0 W/m2
11:05 29.3 °C 6 °C 1011.1 hPa Calm     23% 0 mm 823.0 W/m2
12:10 32 °C 5.5 °C 1010.4 hPa Calm     19% 0 mm 914.0 W/m2
12:19 33 °C 4.7 °C 1010.4 hPa Calm     17% 0 mm 926.0 W/m2
12:34 33.2 °C 4.9 °C 1010 hPa Calm     17% 0 mm 935.0 W/m2
12:50 33.6 °C 5.2 °C 1010 hPa Calm   11.3 km/h 17% 0 mm 935.0 W/m2
13:00 33.5 °C 5.1 °C 1009.7 hPa Calm   12.9 km/h 17% 0 mm 942.0 W/m2
13:10 33.8 °C 5.3 °C 1009.7 hPa Calm   4.8 km/h 17% 0 mm 939.0 W/m2
13:20 34.4 °C 5 °C 1009 hPa Calm   9.7 km/h 16% 0 mm 939.0 W/m2
13:25 34.7 °C 5.2 °C 1009 hPa Calm     16% 0 mm 937.0 W/m2
13:35 34.4 °C 5 °C 1009 hPa WSW 4.7 km/h 6.4 km/h 16% 0 mm 928.0 W/m2
13:40 34.3 °C 4.9 °C 1009 hPa Calm   11.3 km/h 16% 0 mm 923.0 W/m2
13:55 34.4 °C 5 °C 1008.7 hPa Calm   6.4 km/h 16% 0 mm 916.0 W/m2
14:05 34.4 °C 5 °C 1008.4 hPa WSW 7.9 km/h 12.9 km/h 16% 0 mm 911.0 W/m2
14:16 34.6 °C 5.1 °C 1008.4 hPa WSW 19.5 km/h 19.5 km/h 16% 0 mm 895.0 W/m2
14:21 34.8 °C 5.3 °C 1008 hPa Calm   1.6 km/h 16% 0 mm 882.0 W/m2
14:31 34.8 °C 4.3 °C 1008 hPa WSW 11.1 km/h 14.5 km/h 15% 0 mm 868.0 W/m2
14:47 35.2 °C 4.7 °C 1007.3 hPa Calm     15% 0 mm 840.0 W/m2
15:08 35.2 °C 4.7 °C 1007 hPa WSW 13 km/h 20.9 km/h 15% 0 mm 809.0 W/m2
15:12 34.9 °C 4.4 °C 1007 hPa Calm     15% 0 mm 786.0 W/m2
15:22 35.3 °C 4.7 °C 1006.7 hPa WSW 3.2 km/h 6.4 km/h 15% 0 mm 761.0 W/m2
15:33 35.9 °C 4.2 °C 1006.7 hPa Calm     14% 0 mm 733.0 W/m2
15:42 36.1 °C 4.4 °C 1006.7 hPa WSW 9.7 km/h 12.9 km/h 14% 0 mm 717.0 W/m2
15:55 35.7 °C 4.1 °C 1006.3 hPa SSW 7.9 km/h 22.5 km/h 14% 0 mm 691.0 W/m2
16:03 35.8 °C 3.1 °C 1006.3 hPa Calm   14.5 km/h 13% 0 mm 652.0 W/m2
16:23 35.6 °C 1.8 °C 1006 hPa SSW 17.7 km/h 22.5 km/h 12% 0 mm 605.0 W/m2
16:34 35.8 °C 0.8 °C 1006 hPa SSW 6.4 km/h 11.3 km/h 11% 0 mm 575.0 W/m2
16:38 35.6 °C 2.9 °C 1006 hPa SSW 11.1 km/h 17.7 km/h 13% 0 mm 545.0 W/m2
16:48 35.6 °C 0.6 °C 1005.6 hPa SSE 13 km/h 14.5 km/h 11% 0 mm 510.0 W/m2
17:03 35.4 °C 1.7 °C 1005.6 hPa Calm   9.7 km/h 12% 0 mm 459.0 W/m2
17:18 35.6 °C 2.9 °C 1005.6 hPa South 17.7 km/h 20.9 km/h 13% 0 mm 369.0 W/m2
17:25 35.4 °C 1.7 °C 1005.6 hPa South 11.1 km/h 16.1 km/h 12% 0 mm 330.0 W/m2
18:04 34.8 °C 2.3 °C 1005.6 hPa SSE 11.1 km/h 12.9 km/h 13% 0 mm 104.0 W/m2
18:09 34.7 °C 2.2 °C 1005.6 hPa SSE 11.1 km/h 17.7 km/h 13% 0 mm 91.0 W/m2
18:27 34.5 °C 2.1 °C 1005.6 hPa SSE 13 km/h 22.5 km/h 13% 0 mm 74.0 W/m2
18:29 34.4 °C 2 °C 1005.6 hPa SSE 14.3 km/h 16.1 km/h 13% 0 mm 70.0 W/m2
18:37 34.4 °C 2 °C 1005.6 hPa SSE 13 km/h 17.7 km/h 13% 0 mm 63.0 W/m2
18:39 34.3 °C 1.9 °C 1005.6 hPa South 20.9 km/h 22.5 km/h 13% 0 mm 56.0 W/m2
18:53 34 °C 1.7 °C 1005.6 hPa South 16.3 km/h 24.1 km/h 13% 0 mm 40.0 W/m2
18:59 33.9 °C 1.6 °C 1005.6 hPa South 22.7 km/h 27.4 km/h 13% 0 mm 30.0 W/m2
19:07 33.6 °C 1.4 °C 1005.6 hPa South 16.3 km/h 24.1 km/h 13% 0 mm 14.0 W/m2
21:20 30.3 °C -2.3 °C 1006.7 hPa South 16.3 km/h 17.7 km/h 12% 0 mm 0.0 W/m2
21:30 30.1 °C -2.4 °C 1007 hPa South 11.1 km/h 17.7 km/h 12% 0 mm 0.0 W/m2
21:52 29.8 °C -2.7 °C 1007 hPa South 13 km/h 20.9 km/h 12% 0 mm 0.0 W/m2
22:07 29.6 °C -4 °C 1007 hPa SSE 14.3 km/h 19.3 km/h 11% 0 mm 0.0 W/m2
22:20 29.3 °C -4.2 °C 1007.3 hPa SSE 14.3 km/h 14.5 km/h 11% 0 mm 0.0 W/m2
Canyon Roadhouse, Fishriver Canyon, Namibia
Compliments of Weather Underground - 2.25 mb